sensor_id;sensor_type;location;lat;lon;timestamp;temperature;humidity
37786;DHT22;23625;48.784;9.336;2023-07-20T00:01:31;19.90;77.40
37786;DHT22;23625;48.784;9.336;2023-07-20T00:03:57;19.90;77.10
37786;DHT22;23625;48.784;9.336;2023-07-20T00:06:24;19.80;79.80
37786;DHT22;23625;48.784;9.336;2023-07-20T00:08:50;19.70;82.40
37786;DHT22;23625;48.784;9.336;2023-07-20T00:11:16;19.70;86.80
37786;DHT22;23625;48.784;9.336;2023-07-20T00:13:42;19.50;88.20
37786;DHT22;23625;48.784;9.336;2023-07-20T00:16:07;19.40;90.40
37786;DHT22;23625;48.784;9.336;2023-07-20T00:18:33;19.30;91.20
37786;DHT22;23625;48.784;9.336;2023-07-20T00:20:58;19.10;92.90
37786;DHT22;23625;48.784;9.336;2023-07-20T00:23:27;19.00;94.40
37786;DHT22;23625;48.784;9.336;2023-07-20T00:25:53;18.70;96.00
37786;DHT22;23625;48.784;9.336;2023-07-20T00:28:19;18.70;95.00
37786;DHT22;23625;48.784;9.336;2023-07-20T00:30:45;18.70;91.60
37786;DHT22;23625;48.784;9.336;2023-07-20T00:33:11;18.80;91.90
37786;DHT22;23625;48.784;9.336;2023-07-20T00:35:37;18.70;93.40
37786;DHT22;23625;48.784;9.336;2023-07-20T00:38:03;18.70;93.30
37786;DHT22;23625;48.784;9.336;2023-07-20T00:40:36;18.70;93.20
37786;DHT22;23625;48.784;9.336;2023-07-20T00:43:01;18.50;95.40
37786;DHT22;23625;48.784;9.336;2023-07-20T00:45:27;18.40;94.50
37786;DHT22;23625;48.784;9.336;2023-07-20T00:47:53;18.30;95.10
37786;DHT22;23625;48.784;9.336;2023-07-20T00:50:19;18.30;92.50
37786;DHT22;23625;48.784;9.336;2023-07-20T00:52:44;18.30;95.00
37786;DHT22;23625;48.784;9.336;2023-07-20T00:55:10;18.20;97.20
37786;DHT22;23625;48.784;9.336;2023-07-20T00:57:36;18.10;96.00
37786;DHT22;23625;48.784;9.336;2023-07-20T01:00:02;18.00;95.90
37786;DHT22;23625;48.784;9.336;2023-07-20T01:02:28;18.00;94.60
37786;DHT22;23625;48.784;9.336;2023-07-20T01:04:54;18.00;93.20
37786;DHT22;23625;48.784;9.336;2023-07-20T01:07:31;18.00;93.40
37786;DHT22;23625;48.784;9.336;2023-07-20T01:10:27;17.90;94.20
37786;DHT22;23625;48.784;9.336;2023-07-20T01:12:55;17.80;96.00
37786;DHT22;23625;48.784;9.336;2023-07-20T01:15:21;17.90;95.50
37786;DHT22;23625;48.784;9.336;2023-07-20T01:17:46;17.80;95.60
37786;DHT22;23625;48.784;9.336;2023-07-20T01:20:16;17.70;96.60
37786;DHT22;23625;48.784;9.336;2023-07-20T01:25:18;17.50;99.00
37786;DHT22;23625;48.784;9.336;2023-07-20T01:28:22;17.50;99.80
37786;DHT22;23625;48.784;9.336;2023-07-20T01:33:40;17.20;99.90
37786;DHT22;23625;48.784;9.336;2023-07-20T01:36:07;17.20;99.90
37786;DHT22;23625;48.784;9.336;2023-07-20T01:38:33;17.10;99.00
37786;DHT22;23625;48.784;9.336;2023-07-20T01:40:58;17.00;99.90
37786;DHT22;23625;48.784;9.336;2023-07-20T01:43:24;16.90;99.90
37786;DHT22;23625;48.784;9.336;2023-07-20T01:45:50;16.80;99.90
37786;DHT22;23625;48.784;9.336;2023-07-20T01:48:15;16.70;99.90
37786;DHT22;23625;48.784;9.336;2023-07-20T01:50:41;16.60;99.90
37786;DHT22;23625;48.784;9.336;2023-07-20T01:53:07;16.60;99.90
37786;DHT22;23625;48.784;9.336;2023-07-20T01:55:32;16.50;99.90
37786;DHT22;23625;48.784;9.336;2023-07-20T01:57:58;16.50;99.90
37786;DHT22;23625;48.784;9.336;2023-07-20T02:00:25;16.40;99.90
37786;DHT22;23625;48.784;9.336;2023-07-20T02:02:51;16.30;99.90
37786;DHT22;23625;48.784;9.336;2023-07-20T02:05:17;16.30;99.90
37786;DHT22;23625;48.784;9.336;2023-07-20T02:07:43;16.30;99.90
37786;DHT22;23625;48.784;9.336;2023-07-20T02:10:09;16.30;99.90
37786;DHT22;23625;48.784;9.336;2023-07-20T02:12:35;16.20;99.90
37786;DHT22;23625;48.784;9.336;2023-07-20T02:15:01;16.10;99.90
37786;DHT22;23625;48.784;9.336;2023-07-20T02:17:27;16.10;99.90
37786;DHT22;23625;48.784;9.336;2023-07-20T02:19:53;16.00;99.90
37786;DHT22;23625;48.784;9.336;2023-07-20T02:22:20;16.00;99.90
37786;DHT22;23625;48.784;9.336;2023-07-20T02:24:46;15.90;99.90
37786;DHT22;23625;48.784;9.336;2023-07-20T02:27:11;15.80;99.90
37786;DHT22;23625;48.784;9.336;2023-07-20T02:29:37;15.80;99.90
37786;DHT22;23625;48.784;9.336;2023-07-20T02:32:03;15.60;99.90
37786;DHT22;23625;48.784;9.336;2023-07-20T02:34:29;15.50;99.90
37786;DHT22;23625;48.784;9.336;2023-07-20T02:36:55;15.50;99.90
37786;DHT22;23625;48.784;9.336;2023-07-20T02:39:24;15.30;99.90
37786;DHT22;23625;48.784;9.336;2023-07-20T02:41:50;15.50;99.90
37786;DHT22;23625;48.784;9.336;2023-07-20T02:44:15;15.50;99.90
37786;DHT22;23625;48.784;9.336;2023-07-20T02:46:41;15.40;99.90
37786;DHT22;23625;48.784;9.336;2023-07-20T02:49:07;15.40;99.90
37786;DHT22;23625;48.784;9.336;2023-07-20T02:51:32;15.40;99.90
37786;DHT22;23625;48.784;9.336;2023-07-20T02:53:58;15.30;99.90
37786;DHT22;23625;48.784;9.336;2023-07-20T02:56:24;15.20;99.90
37786;DHT22;23625;48.784;9.336;2023-07-20T02:58:50;15.10;99.90
37786;DHT22;23625;48.784;9.336;2023-07-20T03:01:16;15.10;99.90
37786;DHT22;23625;48.784;9.336;2023-07-20T03:03:42;15.20;99.90
37786;DHT22;23625;48.784;9.336;2023-07-20T03:06:13;15.00;99.90
37786;DHT22;23625;48.784;9.336;2023-07-20T03:08:40;15.00;99.90
37786;DHT22;23625;48.784;9.336;2023-07-20T03:11:07;15.00;99.90
37786;DHT22;23625;48.784;9.336;2023-07-20T03:13:33;14.90;99.90
37786;DHT22;23625;48.784;9.336;2023-07-20T03:15:58;14.90;99.90
37786;DHT22;23625;48.784;9.336;2023-07-20T03:18:24;14.80;99.90
37786;DHT22;23625;48.784;9.336;2023-07-20T03:20:49;14.90;99.90
37786;DHT22;23625;48.784;9.336;2023-07-20T03:23:15;14.80;99.90
37786;DHT22;23625;48.784;9.336;2023-07-20T03:25:42;14.80;99.90
37786;DHT22;23625;48.784;9.336;2023-07-20T03:28:07;14.80;99.90
37786;DHT22;23625;48.784;9.336;2023-07-20T03:30:33;14.80;99.90
37786;DHT22;23625;48.784;9.336;2023-07-20T03:32:59;14.70;99.90
37786;DHT22;23625;48.784;9.336;2023-07-20T03:35:25;14.70;99.90
37786;DHT22;23625;48.784;9.336;2023-07-20T03:37:51;14.70;99.90
37786;DHT22;23625;48.784;9.336;2023-07-20T03:40:17;14.60;99.90
37786;DHT22;23625;48.784;9.336;2023-07-20T03:42:43;14.60;99.90
37786;DHT22;23625;48.784;9.336;2023-07-20T03:45:08;14.60;99.90
37786;DHT22;23625;48.784;9.336;2023-07-20T03:47:34;14.60;99.90
37786;DHT22;23625;48.784;9.336;2023-07-20T03:50:00;14.50;99.90
37786;DHT22;23625;48.784;9.336;2023-07-20T03:52:25;14.50;99.90
37786;DHT22;23625;48.784;9.336;2023-07-20T03:54:51;14.40;99.90
37786;DHT22;23625;48.784;9.336;2023-07-20T03:57:17;14.40;99.90
37786;DHT22;23625;48.784;9.336;2023-07-20T03:59:45;14.40;99.90
37786;DHT22;23625;48.784;9.336;2023-07-20T04:02:14;14.40;99.90
37786;DHT22;23625;48.784;9.336;2023-07-20T04:04:40;14.40;99.90
37786;DHT22;23625;48.784;9.336;2023-07-20T04:07:05;14.40;99.90
37786;DHT22;23625;48.784;9.336;2023-07-20T04:09:32;14.40;99.90
37786;DHT22;23625;48.784;9.336;2023-07-20T04:11:58;14.40;99.90
37786;DHT22;23625;48.784;9.336;2023-07-20T04:14:24;14.40;99.90
37786;DHT22;23625;48.784;9.336;2023-07-20T04:16:49;14.50;99.90
37786;DHT22;23625;48.784;9.336;2023-07-20T04:19:16;14.60;99.90
37786;DHT22;23625;48.784;9.336;2023-07-20T04:21:43;14.50;99.90
37786;DHT22;23625;48.784;9.336;2023-07-20T04:24:09;14.50;99.90
37786;DHT22;23625;48.784;9.336;2023-07-20T04:26:34;14.50;99.90
37786;DHT22;23625;48.784;9.336;2023-07-20T04:29:01;14.60;99.90
37786;DHT22;23625;48.784;9.336;2023-07-20T04:31:26;14.60;99.90
37786;DHT22;23625;48.784;9.336;2023-07-20T04:33:52;14.60;99.90
37786;DHT22;23625;48.784;9.336;2023-07-20T04:36:17;14.60;99.90
37786;DHT22;23625;48.784;9.336;2023-07-20T04:38:45;14.70;99.90
37786;DHT22;23625;48.784;9.336;2023-07-20T04:41:11;14.80;99.90
37786;DHT22;23625;48.784;9.336;2023-07-20T04:43:44;14.80;99.90
37786;DHT22;23625;48.784;9.336;2023-07-20T04:46:10;14.90;99.90
37786;DHT22;23625;48.784;9.336;2023-07-20T04:48:36;15.00;99.90
37786;DHT22;23625;48.784;9.336;2023-07-20T04:51:02;15.00;99.90
37786;DHT22;23625;48.784;9.336;2023-07-20T04:53:27;15.10;99.90
37786;DHT22;23625;48.784;9.336;2023-07-20T04:55:53;15.20;99.90
37786;DHT22;23625;48.784;9.336;2023-07-20T04:58:20;15.30;99.90
37786;DHT22;23625;48.784;9.336;2023-07-20T05:00:47;15.40;99.90
37786;DHT22;23625;48.784;9.336;2023-07-20T05:03:13;15.50;99.90
37786;DHT22;23625;48.784;9.336;2023-07-20T05:05:39;15.60;99.90
37786;DHT22;23625;48.784;9.336;2023-07-20T05:08:05;15.70;99.90
37786;DHT22;23625;48.784;9.336;2023-07-20T05:10:31;15.80;99.90
37786;DHT22;23625;48.784;9.336;2023-07-20T05:12:58;15.90;99.90
37786;DHT22;23625;48.784;9.336;2023-07-20T05:15:23;16.10;99.90
37786;DHT22;23625;48.784;9.336;2023-07-20T05:17:49;16.20;99.90
37786;DHT22;23625;48.784;9.336;2023-07-20T05:20:14;16.30;99.90
37786;DHT22;23625;48.784;9.336;2023-07-20T05:22:40;16.60;99.90
37786;DHT22;23625;48.784;9.336;2023-07-20T05:25:07;16.80;99.90
37786;DHT22;23625;48.784;9.336;2023-07-20T05:27:34;16.90;99.90
37786;DHT22;23625;48.784;9.336;2023-07-20T05:30:00;17.10;99.90
37786;DHT22;23625;48.784;9.336;2023-07-20T05:32:25;17.30;99.90
37786;DHT22;23625;48.784;9.336;2023-07-20T05:34:54;17.40;99.90
37786;DHT22;23625;48.784;9.336;2023-07-20T05:37:20;17.60;99.90
37786;DHT22;23625;48.784;9.336;2023-07-20T05:39:46;17.70;99.90
37786;DHT22;23625;48.784;9.336;2023-07-20T05:42:12;17.80;99.90
37786;DHT22;23625;48.784;9.336;2023-07-20T05:44:37;17.80;99.90
37786;DHT22;23625;48.784;9.336;2023-07-20T05:47:03;17.80;99.90
37786;DHT22;23625;48.784;9.336;2023-07-20T05:49:29;17.90;99.90
37786;DHT22;23625;48.784;9.336;2023-07-20T05:51:55;17.90;99.90
37786;DHT22;23625;48.784;9.336;2023-07-20T05:54:22;17.90;99.90
37786;DHT22;23625;48.784;9.336;2023-07-20T05:56:48;17.90;99.90
37786;DHT22;23625;48.784;9.336;2023-07-20T05:59:14;17.90;99.90
37786;DHT22;23625;48.784;9.336;2023-07-20T06:01:40;17.90;99.90
37786;DHT22;23625;48.784;9.336;2023-07-20T06:04:06;18.00;99.90
37786;DHT22;23625;48.784;9.336;2023-07-20T06:06:31;18.00;99.90
37786;DHT22;23625;48.784;9.336;2023-07-20T06:08:57;18.00;99.90
37786;DHT22;23625;48.784;9.336;2023-07-20T06:11:22;18.10;99.90
37786;DHT22;23625;48.784;9.336;2023-07-20T06:13:48;18.20;99.90
37786;DHT22;23625;48.784;9.336;2023-07-20T06:16:13;18.20;99.90
37786;DHT22;23625;48.784;9.336;2023-07-20T06:18:39;18.30;99.90
37786;DHT22;23625;48.784;9.336;2023-07-20T06:21:04;18.40;99.40
37786;DHT22;23625;48.784;9.336;2023-07-20T06:23:30;18.40;99.90
37786;DHT22;23625;48.784;9.336;2023-07-20T06:25:56;18.50;99.40
37786;DHT22;23625;48.784;9.336;2023-07-20T06:28:21;18.60;99.40
37786;DHT22;23625;48.784;9.336;2023-07-20T06:30:47;18.60;99.10
37786;DHT22;23625;48.784;9.336;2023-07-20T06:33:12;18.70;99.10
37786;DHT22;23625;48.784;9.336;2023-07-20T06:35:41;18.70;98.20
37786;DHT22;23625;48.784;9.336;2023-07-20T06:38:08;18.80;98.60
37786;DHT22;23625;48.784;9.336;2023-07-20T06:40:33;18.80;98.00
37786;DHT22;23625;48.784;9.336;2023-07-20T06:42:59;18.90;97.90
37786;DHT22;23625;48.784;9.336;2023-07-20T06:45:25;18.90;95.60
37786;DHT22;23625;48.784;9.336;2023-07-20T06:47:50;18.90;95.80
37786;DHT22;23625;48.784;9.336;2023-07-20T06:50:16;19.00;95.80
37786;DHT22;23625;48.784;9.336;2023-07-20T06:52:42;19.00;95.60
37786;DHT22;23625;48.784;9.336;2023-07-20T06:55:08;19.10;94.50
37786;DHT22;23625;48.784;9.336;2023-07-20T06:57:33;19.20;94.70
37786;DHT22;23625;48.784;9.336;2023-07-20T06:59:59;19.20;94.50
37786;DHT22;23625;48.784;9.336;2023-07-20T07:02:24;19.20;94.70
37786;DHT22;23625;48.784;9.336;2023-07-20T07:04:50;19.30;93.50
37786;DHT22;23625;48.784;9.336;2023-07-20T07:07:16;19.40;91.40
37786;DHT22;23625;48.784;9.336;2023-07-20T07:09:42;19.50;92.40
37786;DHT22;23625;48.784;9.336;2023-07-20T07:12:08;19.50;91.30
37786;DHT22;23625;48.784;9.336;2023-07-20T07:14:34;19.50;90.70
37786;DHT22;23625;48.784;9.336;2023-07-20T07:17:00;19.60;87.80
37786;DHT22;23625;48.784;9.336;2023-07-20T07:19:26;19.60;89.60
37786;DHT22;23625;48.784;9.336;2023-07-20T07:21:51;19.70;91.00
37786;DHT22;23625;48.784;9.336;2023-07-20T07:24:17;19.80;90.30
37786;DHT22;23625;48.784;9.336;2023-07-20T07:26:43;19.90;87.80
37786;DHT22;23625;48.784;9.336;2023-07-20T07:29:09;20.10;88.50
37786;DHT22;23625;48.784;9.336;2023-07-20T07:31:35;20.20;87.10
37786;DHT22;23625;48.784;9.336;2023-07-20T07:34:02;20.30;83.40
37786;DHT22;23625;48.784;9.336;2023-07-20T07:36:28;20.40;81.90
37786;DHT22;23625;48.784;9.336;2023-07-20T07:38:53;20.50;78.60
37786;DHT22;23625;48.784;9.336;2023-07-20T07:41:19;20.60;78.00
37786;DHT22;23625;48.784;9.336;2023-07-20T07:43:44;20.60;79.20
37786;DHT22;23625;48.784;9.336;2023-07-20T07:46:10;20.60;77.70
37786;DHT22;23625;48.784;9.336;2023-07-20T07:48:35;20.80;79.10
37786;DHT22;23625;48.784;9.336;2023-07-20T07:51:01;21.00;77.50
37786;DHT22;23625;48.784;9.336;2023-07-20T07:53:27;21.30;75.10
37786;DHT22;23625;48.784;9.336;2023-07-20T07:55:52;21.50;70.20
37786;DHT22;23625;48.784;9.336;2023-07-20T07:58:18;21.40;71.20
37786;DHT22;23625;48.784;9.336;2023-07-20T08:00:44;21.50;72.80
37786;DHT22;23625;48.784;9.336;2023-07-20T08:03:09;21.60;72.70
37786;DHT22;23625;48.784;9.336;2023-07-20T08:05:35;21.90;72.60
37786;DHT22;23625;48.784;9.336;2023-07-20T08:08:04;22.00;69.80
37786;DHT22;23625;48.784;9.336;2023-07-20T08:10:30;21.90;66.90
37786;DHT22;23625;48.784;9.336;2023-07-20T08:12:56;21.90;67.20
37786;DHT22;23625;48.784;9.336;2023-07-20T08:15:22;22.00;69.50
37786;DHT22;23625;48.784;9.336;2023-07-20T08:17:48;22.20;68.70
37786;DHT22;23625;48.784;9.336;2023-07-20T08:20:15;22.50;68.40
37786;DHT22;23625;48.784;9.336;2023-07-20T08:22:42;22.80;64.90
37786;DHT22;23625;48.784;9.336;2023-07-20T08:25:09;22.60;63.10
37786;DHT22;23625;48.784;9.336;2023-07-20T08:27:35;22.70;63.30
37786;DHT22;23625;48.784;9.336;2023-07-20T08:30:00;23.10;63.20
37786;DHT22;23625;48.784;9.336;2023-07-20T08:32:26;23.20;61.10
37786;DHT22;23625;48.784;9.336;2023-07-20T08:34:52;23.40;62.70
37786;DHT22;23625;48.784;9.336;2023-07-20T08:37:18;23.40;61.20
37786;DHT22;23625;48.784;9.336;2023-07-20T08:39:43;23.30;59.80
37786;DHT22;23625;48.784;9.336;2023-07-20T08:42:10;22.80;60.00
37786;DHT22;23625;48.784;9.336;2023-07-20T08:44:37;22.70;60.90
37786;DHT22;23625;48.784;9.336;2023-07-20T08:47:04;22.70;62.90
37786;DHT22;23625;48.784;9.336;2023-07-20T08:49:34;22.70;61.10
37786;DHT22;23625;48.784;9.336;2023-07-20T08:52:00;22.60;60.30
37786;DHT22;23625;48.784;9.336;2023-07-20T08:54:30;22.40;60.30
37786;DHT22;23625;48.784;9.336;2023-07-20T08:56:59;22.30;61.20
37786;DHT22;23625;48.784;9.336;2023-07-20T08:59:27;22.20;61.40
37786;DHT22;23625;48.784;9.336;2023-07-20T09:01:56;22.00;62.40
37786;DHT22;23625;48.784;9.336;2023-07-20T09:04:22;21.90;63.60
37786;DHT22;23625;48.784;9.336;2023-07-20T09:06:49;21.90;62.60
37786;DHT22;23625;48.784;9.336;2023-07-20T09:09:14;22.30;62.70
37786;DHT22;23625;48.784;9.336;2023-07-20T09:11:40;22.80;60.80
37786;DHT22;23625;48.784;9.336;2023-07-20T09:14:07;23.00;58.60
37786;DHT22;23625;48.784;9.336;2023-07-20T09:16:50;23.10;58.40
37786;DHT22;23625;48.784;9.336;2023-07-20T09:19:16;23.00;57.40
37786;DHT22;23625;48.784;9.336;2023-07-20T09:21:45;22.80;57.50
37786;DHT22;23625;48.784;9.336;2023-07-20T09:24:12;22.60;58.50
37786;DHT22;23625;48.784;9.336;2023-07-20T09:26:41;22.50;59.20
37786;DHT22;23625;48.784;9.336;2023-07-20T09:29:08;22.60;59.30
37786;DHT22;23625;48.784;9.336;2023-07-20T09:31:35;23.00;59.40
37786;DHT22;23625;48.784;9.336;2023-07-20T09:34:01;23.50;58.30
37786;DHT22;23625;48.784;9.336;2023-07-20T09:36:27;24.00;58.30
37786;DHT22;23625;48.784;9.336;2023-07-20T09:38:53;24.30;57.00
37786;DHT22;23625;48.784;9.336;2023-07-20T09:41:20;24.60;55.90
37786;DHT22;23625;48.784;9.336;2023-07-20T09:43:46;24.60;54.00
37786;DHT22;23625;48.784;9.336;2023-07-20T09:46:12;24.00;52.60
37786;DHT22;23625;48.784;9.336;2023-07-20T09:48:39;23.50;54.00
37786;DHT22;23625;48.784;9.336;2023-07-20T09:51:05;23.40;55.00
37786;DHT22;23625;48.784;9.336;2023-07-20T09:53:33;23.60;55.80
37786;DHT22;23625;48.784;9.336;2023-07-20T09:55:59;23.60;55.10
37786;DHT22;23625;48.784;9.336;2023-07-20T09:58:26;23.60;54.50
37786;DHT22;23625;48.784;9.336;2023-07-20T10:00:53;23.60;54.30
37786;DHT22;23625;48.784;9.336;2023-07-20T10:03:22;23.80;54.70
37786;DHT22;23625;48.784;9.336;2023-07-20T10:05:54;23.80;54.40
37786;DHT22;23625;48.784;9.336;2023-07-20T10:08:21;23.70;53.70
37786;DHT22;23625;48.784;9.336;2023-07-20T10:10:49;23.50;54.00
37786;DHT22;23625;48.784;9.336;2023-07-20T10:13:18;23.30;54.70
37786;DHT22;23625;48.784;9.336;2023-07-20T10:15:48;23.20;55.00
37786;DHT22;23625;48.784;9.336;2023-07-20T10:20:46;23.10;54.80
37786;DHT22;23625;48.784;9.336;2023-07-20T10:23:12;23.50;55.90
37786;DHT22;23625;48.784;9.336;2023-07-20T10:25:38;24.00;54.10
37786;DHT22;23625;48.784;9.336;2023-07-20T10:28:07;24.40;53.10
37786;DHT22;23625;48.784;9.336;2023-07-20T10:30:36;24.90;52.90
37786;DHT22;23625;48.784;9.336;2023-07-20T10:33:03;24.90;51.10
37786;DHT22;23625;48.784;9.336;2023-07-20T10:35:29;24.60;51.60
37786;DHT22;23625;48.784;9.336;2023-07-20T10:38:01;24.30;51.90
37786;DHT22;23625;48.784;9.336;2023-07-20T10:43:04;23.90;51.70
37786;DHT22;23625;48.784;9.336;2023-07-20T10:45:52;24.00;51.70
37786;DHT22;23625;48.784;9.336;2023-07-20T10:48:23;24.00;51.60
37786;DHT22;23625;48.784;9.336;2023-07-20T10:53:34;24.00;51.80
37786;DHT22;23625;48.784;9.336;2023-07-20T10:56:27;24.30;51.90
37786;DHT22;23625;48.784;9.336;2023-07-20T10:58:59;24.90;50.80
37786;DHT22;23625;48.784;9.336;2023-07-20T11:01:29;25.00;48.60
37786;DHT22;23625;48.784;9.336;2023-07-20T11:03:58;25.10;49.10
37786;DHT22;23625;48.784;9.336;2023-07-20T11:09:13;25.30;48.60
37786;DHT22;23625;48.784;9.336;2023-07-20T11:11:46;25.20;48.00
37786;DHT22;23625;48.784;9.336;2023-07-20T11:14:23;25.30;48.10
37786;DHT22;23625;48.784;9.336;2023-07-20T11:16:50;25.30;47.60
37786;DHT22;23625;48.784;9.336;2023-07-20T11:19:27;25.00;47.10
37786;DHT22;23625;48.784;9.336;2023-07-20T11:21:57;24.90;47.30
37786;DHT22;23625;48.784;9.336;2023-07-20T11:24:23;25.10;47.90
37786;DHT22;23625;48.784;9.336;2023-07-20T11:26:51;25.20;46.80
37786;DHT22;23625;48.784;9.336;2023-07-20T11:29:18;25.10;47.10
37786;DHT22;23625;48.784;9.336;2023-07-20T11:31:45;25.00;47.10
37786;DHT22;23625;48.784;9.336;2023-07-20T11:36:42;24.60;47.40
37786;DHT22;23625;48.784;9.336;2023-07-20T11:39:09;24.60;47.10
37786;DHT22;23625;48.784;9.336;2023-07-20T11:41:35;24.90;46.80
37786;DHT22;23625;48.784;9.336;2023-07-20T11:44:01;25.00;46.40
37786;DHT22;23625;48.784;9.336;2023-07-20T11:46:28;24.90;46.10
37786;DHT22;23625;48.784;9.336;2023-07-20T11:48:58;24.90;46.40
37786;DHT22;23625;48.784;9.336;2023-07-20T11:51:27;24.90;46.30
37786;DHT22;23625;48.784;9.336;2023-07-20T11:53:53;25.10;46.60
37786;DHT22;23625;48.784;9.336;2023-07-20T11:56:18;25.20;45.80
37786;DHT22;23625;48.784;9.336;2023-07-20T11:58:44;25.30;46.40
37786;DHT22;23625;48.784;9.336;2023-07-20T12:01:12;25.40;45.50
37786;DHT22;23625;48.784;9.336;2023-07-20T12:03:38;25.70;45.90
37786;DHT22;23625;48.784;9.336;2023-07-20T12:06:10;26.10;45.70
37786;DHT22;23625;48.784;9.336;2023-07-20T12:08:43;26.10;44.30
37786;DHT22;23625;48.784;9.336;2023-07-20T12:11:09;25.70;44.20
37786;DHT22;23625;48.784;9.336;2023-07-20T12:13:42;25.80;45.10
37786;DHT22;23625;48.784;9.336;2023-07-20T12:16:14;26.10;44.90
37786;DHT22;23625;48.784;9.336;2023-07-20T12:18:42;26.20;44.10
37786;DHT22;23625;48.784;9.336;2023-07-20T12:21:08;25.90;43.20
37786;DHT22;23625;48.784;9.336;2023-07-20T12:23:41;25.60;44.00
37786;DHT22;23625;48.784;9.336;2023-07-20T12:26:08;25.70;44.60
37786;DHT22;23625;48.784;9.336;2023-07-20T12:28:44;26.10;44.30
37786;DHT22;23625;48.784;9.336;2023-07-20T12:31:10;26.30;43.50
37786;DHT22;23625;48.784;9.336;2023-07-20T12:33:37;26.00;42.30
37786;DHT22;23625;48.784;9.336;2023-07-20T12:36:03;26.00;43.40
37786;DHT22;23625;48.784;9.336;2023-07-20T12:38:29;26.30;43.60
37786;DHT22;23625;48.784;9.336;2023-07-20T12:40:56;26.20;42.70
37786;DHT22;23625;48.784;9.336;2023-07-20T12:43:22;26.30;43.40
37786;DHT22;23625;48.784;9.336;2023-07-20T12:45:48;26.70;43.90
37786;DHT22;23625;48.784;9.336;2023-07-20T12:48:13;26.80;43.10
37786;DHT22;23625;48.784;9.336;2023-07-20T12:50:39;26.40;42.00
37786;DHT22;23625;48.784;9.336;2023-07-20T12:53:05;26.40;42.70
37786;DHT22;23625;48.784;9.336;2023-07-20T12:55:31;26.30;42.90
37786;DHT22;23625;48.784;9.336;2023-07-20T12:57:56;26.50;42.70
37786;DHT22;23625;48.784;9.336;2023-07-20T13:00:22;26.80;42.10
37786;DHT22;23625;48.784;9.336;2023-07-20T13:02:49;27.10;42.20
37786;DHT22;23625;48.784;9.336;2023-07-20T13:05:14;27.40;42.00
37786;DHT22;23625;48.784;9.336;2023-07-20T13:07:41;27.60;42.00
37786;DHT22;23625;48.784;9.336;2023-07-20T13:10:07;27.70;41.20
37786;DHT22;23625;48.784;9.336;2023-07-20T13:12:34;27.70;41.30
37786;DHT22;23625;48.784;9.336;2023-07-20T13:15:05;27.90;40.90
37786;DHT22;23625;48.784;9.336;2023-07-20T13:17:38;28.10;40.60
37786;DHT22;23625;48.784;9.336;2023-07-20T13:20:05;28.30;40.80
37786;DHT22;23625;48.784;9.336;2023-07-20T13:22:32;28.20;40.10
37786;DHT22;23625;48.784;9.336;2023-07-20T13:24:58;27.80;40.10
37786;DHT22;23625;48.784;9.336;2023-07-20T13:27:24;27.80;40.90
37786;DHT22;23625;48.784;9.336;2023-07-20T13:29:51;27.70;40.80
37786;DHT22;23625;48.784;9.336;2023-07-20T13:32:17;26.80;40.20
37786;DHT22;23625;48.784;9.336;2023-07-20T13:34:44;26.90;41.00
37786;DHT22;23625;48.784;9.336;2023-07-20T13:37:10;27.20;41.20
37786;DHT22;23625;48.784;9.336;2023-07-20T13:39:36;27.20;40.20
37786;DHT22;23625;48.784;9.336;2023-07-20T13:42:02;27.50;40.60
37786;DHT22;23625;48.784;9.336;2023-07-20T13:44:33;27.50;40.10
37786;DHT22;23625;48.784;9.336;2023-07-20T13:46:59;27.80;40.40
37786;DHT22;23625;48.784;9.336;2023-07-20T13:49:25;27.50;39.10
37786;DHT22;23625;48.784;9.336;2023-07-20T13:51:51;27.40;40.30
37786;DHT22;23625;48.784;9.336;2023-07-20T13:54:16;27.40;40.00
37786;DHT22;23625;48.784;9.336;2023-07-20T13:56:42;27.30;40.20
37786;DHT22;23625;48.784;9.336;2023-07-20T13:59:07;27.40;40.30
37786;DHT22;23625;48.784;9.336;2023-07-20T14:01:33;27.50;40.40
37786;DHT22;23625;48.784;9.336;2023-07-20T14:04:00;27.70;40.30
37786;DHT22;23625;48.784;9.336;2023-07-20T14:06:27;27.90;40.60
37786;DHT22;23625;48.784;9.336;2023-07-20T14:08:53;27.80;39.30
37786;DHT22;23625;48.784;9.336;2023-07-20T14:11:19;27.70;39.70
37786;DHT22;23625;48.784;9.336;2023-07-20T14:13:44;27.90;40.70
37786;DHT22;23625;48.784;9.336;2023-07-20T14:16:10;28.20;39.60
37786;DHT22;23625;48.784;9.336;2023-07-20T14:18:36;28.30;39.30
37786;DHT22;23625;48.784;9.336;2023-07-20T14:21:02;28.10;38.70
37786;DHT22;23625;48.784;9.336;2023-07-20T14:23:29;27.90;38.30
37786;DHT22;23625;48.784;9.336;2023-07-20T14:25:54;27.80;39.20
37786;DHT22;23625;48.784;9.336;2023-07-20T14:28:20;28.10;39.40
37786;DHT22;23625;48.784;9.336;2023-07-20T14:30:46;28.20;38.90
37786;DHT22;23625;48.784;9.336;2023-07-20T14:33:12;28.20;38.60
37786;DHT22;23625;48.784;9.336;2023-07-20T14:35:37;28.10;38.60
37786;DHT22;23625;48.784;9.336;2023-07-20T14:38:03;28.00;38.80
37786;DHT22;23625;48.784;9.336;2023-07-20T14:40:29;28.10;39.10
37786;DHT22;23625;48.784;9.336;2023-07-20T14:42:55;28.30;39.10
37786;DHT22;23625;48.784;9.336;2023-07-20T14:45:21;28.50;38.60
37786;DHT22;23625;48.784;9.336;2023-07-20T14:47:47;28.80;38.40
37786;DHT22;23625;48.784;9.336;2023-07-20T14:50:19;28.50;37.30
37786;DHT22;23625;48.784;9.336;2023-07-20T14:52:45;28.40;38.10
37786;DHT22;23625;48.784;9.336;2023-07-20T14:55:10;28.20;38.00
37786;DHT22;23625;48.784;9.336;2023-07-20T14:57:36;27.90;37.60
37786;DHT22;23625;48.784;9.336;2023-07-20T15:00:02;27.80;38.00
37786;DHT22;23625;48.784;9.336;2023-07-20T15:02:29;27.80;38.70
37786;DHT22;23625;48.784;9.336;2023-07-20T15:04:55;27.90;39.10
37786;DHT22;23625;48.784;9.336;2023-07-20T15:07:22;28.00;38.10
37786;DHT22;23625;48.784;9.336;2023-07-20T15:09:48;27.80;37.70
37786;DHT22;23625;48.784;9.336;2023-07-20T15:12:13;27.80;38.50
37786;DHT22;23625;48.784;9.336;2023-07-20T15:14:41;28.10;38.70
37786;DHT22;23625;48.784;9.336;2023-07-20T15:17:07;28.10;37.90
37786;DHT22;23625;48.784;9.336;2023-07-20T15:19:33;28.20;37.80
37786;DHT22;23625;48.784;9.336;2023-07-20T15:22:00;28.40;37.90
37786;DHT22;23625;48.784;9.336;2023-07-20T15:24:25;28.40;37.50
37786;DHT22;23625;48.784;9.336;2023-07-20T15:26:51;28.50;37.90
37786;DHT22;23625;48.784;9.336;2023-07-20T15:29:16;28.50;37.20
37786;DHT22;23625;48.784;9.336;2023-07-20T15:31:42;28.60;36.80
37786;DHT22;23625;48.784;9.336;2023-07-20T15:34:07;28.20;36.90
37786;DHT22;23625;48.784;9.336;2023-07-20T15:36:33;28.20;37.00
37786;DHT22;23625;48.784;9.336;2023-07-20T15:38:59;28.10;36.80
37786;DHT22;23625;48.784;9.336;2023-07-20T15:41:24;27.80;37.20
37786;DHT22;23625;48.784;9.336;2023-07-20T15:43:50;27.80;37.80
37786;DHT22;23625;48.784;9.336;2023-07-20T15:48:46;27.80;38.20